createdAt,value
2022-10-17T00:00:29.981Z,10.40
2022-10-17T00:01:52.102Z,10.40
2022-10-17T00:03:14.260Z,10.40
2022-10-17T00:04:36.270Z,10.40
2022-10-17T00:05:58.495Z,10.40
2022-10-17T00:07:20.575Z,10.40
2022-10-17T00:08:44.131Z,10.40
2022-10-17T00:10:07.277Z,10.40
2022-10-17T00:11:29.367Z,10.50
2022-10-17T00:12:52.451Z,10.50
2022-10-17T00:14:14.598Z,10.50
2022-10-17T00:15:36.694Z,10.50
2022-10-17T00:16:58.692Z,10.50
2022-10-17T00:18:20.897Z,10.50
2022-10-17T00:19:42.901Z,10.50
2022-10-17T00:21:05.093Z,10.50
2022-10-17T00:22:27.710Z,10.50
2022-10-17T00:23:50.338Z,10.50
2022-10-17T00:25:12.543Z,10.50
2022-10-17T00:26:34.740Z,10.40
2022-10-17T00:27:56.795Z,10.40
2022-10-17T00:29:18.795Z,10.40
2022-10-17T00:30:41.496Z,10.40
2022-10-17T00:32:03.580Z,10.40
2022-10-17T00:33:26.625Z,10.40
2022-10-17T00:36:08.054Z,10.30
2022-10-17T00:37:34.349Z,10.30
2022-10-17T00:38:58.820Z,10.30
2022-10-17T00:40:20.996Z,10.30
2022-10-17T00:41:43.088Z,10.30
2022-10-17T00:43:06.630Z,10.30
2022-10-17T00:44:31.875Z,10.40
2022-10-17T00:45:54.086Z,10.40
2022-10-17T00:47:22.058Z,10.40
2022-10-17T00:48:45.115Z,10.40
2022-10-17T00:50:08.235Z,10.40
2022-10-17T00:51:58.387Z,10.40
2022-10-17T00:53:20.615Z,10.40
2022-10-17T00:54:51.979Z,10.40
2022-10-17T00:56:15.134Z,10.40
2022-10-17T00:57:38.850Z,10.30
2022-10-17T00:59:01.431Z,10.30
2022-10-17T01:00:24.307Z,10.30
2022-10-17T01:02:15.933Z,10.30
2022-10-17T01:03:38.327Z,10.30
2022-10-17T01:05:01.003Z,10.30
2022-10-17T01:06:23.664Z,10.20
2022-10-17T01:07:47.304Z,10.20
2022-10-17T01:09:09.803Z,10.20
2022-10-17T01:10:44.110Z,10.20
2022-10-17T01:12:33.933Z,10.20
2022-10-17T01:14:06.773Z,10.20
2022-10-17T01:15:41.481Z,10.30
2022-10-17T01:17:28.703Z,10.30
2022-10-17T01:19:17.458Z,10.30
2022-10-17T01:21:17.099Z,10.30
2022-10-17T01:22:54.196Z,10.30
2022-10-17T01:24:28.415Z,10.30
2022-10-17T01:26:08.835Z,10.40
2022-10-17T01:28:06.449Z,10.40
2022-10-17T01:29:37.203Z,10.50
2022-10-17T01:31:15.825Z,10.50
2022-10-17T01:32:47.507Z,10.50
2022-10-17T01:34:28.779Z,10.60
2022-10-17T01:36:03.332Z,10.60
2022-10-17T01:37:45.748Z,10.60
2022-10-17T01:39:25.894Z,10.70
2022-10-17T01:40:52.565Z,10.70
2022-10-17T01:42:29.037Z,10.70
2022-10-17T01:44:00.645Z,10.80
2022-10-17T01:45:49.127Z,10.80
2022-10-17T01:47:19.177Z,10.80
2022-10-17T01:48:45.641Z,10.80
2022-10-17T01:50:23.267Z,10.80
2022-10-17T01:51:52.816Z,10.80
2022-10-17T01:53:24.187Z,10.90
2022-10-17T01:54:54.850Z,10.90
2022-10-17T01:56:18.415Z,10.90
2022-10-17T01:57:46.260Z,10.90
2022-10-17T01:59:22.353Z,11.00
2022-10-17T02:00:47.329Z,11.00
2022-10-17T02:02:10.498Z,11.00
2022-10-17T02:03:34.514Z,11.00
2022-10-17T02:04:57.439Z,11.00
2022-10-17T02:06:19.671Z,11.00
2022-10-17T02:07:42.470Z,11.00
2022-10-17T02:09:25.301Z,11.00
2022-10-17T02:10:52.482Z,11.10
2022-10-17T02:12:38.875Z,11.10
2022-10-17T02:14:06.875Z,11.10
2022-10-17T02:15:46.812Z,11.10
2022-10-17T02:17:24.055Z,11.10
2022-10-17T02:19:01.233Z,11.10
2022-10-17T02:20:35.339Z,11.10
2022-10-17T02:22:41.379Z,11.10
2022-10-17T02:24:30.755Z,11.20
2022-10-17T02:26:11.937Z,11.20
2022-10-17T02:27:40.080Z,11.20
2022-10-17T02:29:09.383Z,11.20
2022-10-17T02:30:36.846Z,11.20
2022-10-17T02:32:00.991Z,11.20
2022-10-17T02:33:44.093Z,11.20
2022-10-17T02:35:09.236Z,11.20
2022-10-17T02:36:38.234Z,11.20
2022-10-17T02:38:02.105Z,11.30
2022-10-17T02:39:27.268Z,11.30
2022-10-17T02:40:51.815Z,11.30
2022-10-17T02:42:15.172Z,11.30
2022-10-17T02:43:38.560Z,11.30
2022-10-17T02:45:02.637Z,11.30
2022-10-17T02:46:27.005Z,11.30
2022-10-17T02:47:59.353Z,11.30
2022-10-17T02:49:33.953Z,11.30
2022-10-17T02:51:07.620Z,11.30
2022-10-17T02:52:36.820Z,11.30
2022-10-17T02:54:09.884Z,11.30
2022-10-17T02:55:36.403Z,11.30
2022-10-17T02:57:06.795Z,11.30
2022-10-17T02:58:33.360Z,11.40
2022-10-17T02:59:58.935Z,11.40
2022-10-17T03:01:21.888Z,11.40
2022-10-17T03:02:52.504Z,11.40
2022-10-17T03:04:15.191Z,11.40
2022-10-17T03:05:37.246Z,11.40
2022-10-17T03:06:59.353Z,11.50
2022-10-17T03:08:22.003Z,11.50
2022-10-17T03:09:44.081Z,11.50
2022-10-17T03:11:06.254Z,11.50
2022-10-17T03:12:28.571Z,11.50
2022-10-17T03:13:50.864Z,11.50
2022-10-17T03:15:13.786Z,11.50
2022-10-17T03:16:35.868Z,11.60
2022-10-17T03:17:57.934Z,11.60
2022-10-17T03:19:20.003Z,11.60
2022-10-17T03:20:42.110Z,11.60
2022-10-17T03:22:04.161Z,11.60
2022-10-17T03:23:26.222Z,11.60
2022-10-17T03:24:48.250Z,11.60
2022-10-17T03:26:10.681Z,11.60
2022-10-17T03:27:33.051Z,11.60
2022-10-17T03:28:55.789Z,11.70
2022-10-17T03:30:18.278Z,11.70
2022-10-17T03:31:40.313Z,11.70
2022-10-17T03:33:02.434Z,11.70
2022-10-17T03:34:24.490Z,11.70
2022-10-17T03:35:46.599Z,11.70
2022-10-17T03:37:08.912Z,11.70
2022-10-17T03:38:30.952Z,11.70
2022-10-17T03:39:52.974Z,11.70
2022-10-17T03:41:15.249Z,11.70
2022-10-17T03:42:37.459Z,11.70
2022-10-17T03:43:59.446Z,11.70
2022-10-17T03:45:21.505Z,11.80
2022-10-17T03:46:43.650Z,11.80
2022-10-17T03:48:06.005Z,11.80
2022-10-17T03:49:28.043Z,11.80
2022-10-17T03:50:50.406Z,11.80
2022-10-17T03:52:13.411Z,11.90
2022-10-17T03:53:35.588Z,11.90
2022-10-17T03:54:57.725Z,11.90
2022-10-17T03:56:23.020Z,11.90
2022-10-17T03:57:45.689Z,11.90
2022-10-17T03:59:11.153Z,11.90
2022-10-17T04:00:33.214Z,11.90
2022-10-17T04:01:55.316Z,12.00
2022-10-17T04:03:17.505Z,11.90
2022-10-17T04:04:39.657Z,11.90
2022-10-17T04:06:03.393Z,12.00
2022-10-17T04:08:48.997Z,11.90
2022-10-17T04:10:11.155Z,12.00
2022-10-17T04:11:33.657Z,12.00
2022-10-17T04:12:55.777Z,12.10
2022-10-17T04:14:17.854Z,12.10
2022-10-17T04:15:39.958Z,12.00
2022-10-17T04:17:02.051Z,12.10
2022-10-17T04:18:24.230Z,12.10
2022-10-17T04:19:46.333Z,12.10
2022-10-17T04:21:09.568Z,12.00
2022-10-17T04:22:31.966Z,12.00
2022-10-17T04:23:59.086Z,12.00
2022-10-17T04:25:21.523Z,12.10
2022-10-17T04:26:43.570Z,12.10
2022-10-17T04:28:05.671Z,12.10
2022-10-17T04:29:27.839Z,12.10
2022-10-17T04:31:06.487Z,12.10
2022-10-17T04:32:28.789Z,12.10
2022-10-17T04:33:51.071Z,12.10
2022-10-17T04:35:13.197Z,12.10
2022-10-17T04:36:35.291Z,12.10
2022-10-17T04:37:57.427Z,12.10
2022-10-17T04:39:19.553Z,12.20
2022-10-17T04:40:41.637Z,12.10
2022-10-17T04:42:03.823Z,12.20
2022-10-17T04:43:26.385Z,12.20
2022-10-17T04:44:48.562Z,12.20
2022-10-17T04:46:13.634Z,12.20
2022-10-17T04:47:35.734Z,12.20
2022-10-17T04:48:57.823Z,12.20
2022-10-17T04:50:19.901Z,12.20
2022-10-17T04:51:42.023Z,12.20
2022-10-17T04:53:04.105Z,12.20
2022-10-17T04:54:26.200Z,12.20
2022-10-17T04:55:48.358Z,12.20
2022-10-17T04:57:10.660Z,12.20
2022-10-17T04:58:32.853Z,12.20
2022-10-17T04:59:54.951Z,12.30
2022-10-17T05:01:19.699Z,12.30
2022-10-17T05:02:41.753Z,12.30
2022-10-17T05:04:04.053Z,12.30
2022-10-17T05:05:26.105Z,12.30
2022-10-17T05:06:48.127Z,12.30
2022-10-17T05:08:11.254Z,12.30
2022-10-17T05:09:33.319Z,12.30
2022-10-17T05:10:55.347Z,12.30
2022-10-17T05:12:17.433Z,12.30
2022-10-17T05:13:39.414Z,12.40
2022-10-17T05:15:01.465Z,12.40
2022-10-17T05:16:24.374Z,12.40
2022-10-17T05:17:46.438Z,12.40
2022-10-17T05:19:08.499Z,12.50
2022-10-17T05:20:30.775Z,12.50
2022-10-17T05:21:52.836Z,12.50
2022-10-17T05:23:14.913Z,12.50
2022-10-17T05:24:36.995Z,12.50
2022-10-17T05:25:59.130Z,12.50
2022-10-17T05:27:21.185Z,12.50
2022-10-17T05:28:43.363Z,12.50
2022-10-17T05:30:06.429Z,12.50
2022-10-17T05:31:29.314Z,12.60
2022-10-17T05:32:55.209Z,12.60
2022-10-17T05:34:17.256Z,12.60
2022-10-17T05:35:39.460Z,12.50
2022-10-17T05:37:01.596Z,12.50
2022-10-17T05:38:23.661Z,12.50
2022-10-17T05:39:50.571Z,12.50
2022-10-17T05:41:13.728Z,12.60
2022-10-17T05:42:35.846Z,12.60
2022-10-17T05:43:59.460Z,12.60
2022-10-17T05:45:24.247Z,12.60
2022-10-17T05:46:49.602Z,12.60
2022-10-17T05:48:11.779Z,12.70
2022-10-17T05:49:45.059Z,12.70
2022-10-17T05:51:12.286Z,12.70
2022-10-17T05:52:34.479Z,12.70
2022-10-17T05:53:56.577Z,12.70
2022-10-17T05:55:18.871Z,12.80
2022-10-17T05:56:40.966Z,12.80
2022-10-17T05:58:04.576Z,12.90
2022-10-17T05:59:27.182Z,12.90
2022-10-17T06:00:49.320Z,13.00
2022-10-17T06:02:13.125Z,13.00
2022-10-17T06:03:35.255Z,13.00
2022-10-17T06:04:57.335Z,13.10
2022-10-17T06:06:19.738Z,13.10
2022-10-17T06:07:41.858Z,13.10
2022-10-17T06:09:04.577Z,13.20
2022-10-17T06:10:26.745Z,13.20
2022-10-17T06:11:49.022Z,13.20
2022-10-17T06:13:11.055Z,13.30
2022-10-17T06:14:33.482Z,13.30
2022-10-17T06:15:55.625Z,13.30
2022-10-17T06:17:17.641Z,13.40
2022-10-17T06:18:39.911Z,13.50
2022-10-17T06:20:02.265Z,13.50
2022-10-17T06:21:26.951Z,13.50
2022-10-17T06:22:49.000Z,13.50
2022-10-17T06:24:11.041Z,13.60
2022-10-17T06:25:33.455Z,13.60
2022-10-17T06:26:55.560Z,13.60
2022-10-17T06:28:17.636Z,13.70
2022-10-17T06:29:40.224Z,13.80
2022-10-17T06:31:13.355Z,13.80
2022-10-17T06:32:35.454Z,13.90
2022-10-17T06:33:57.495Z,13.90
2022-10-17T06:35:20.172Z,13.90
2022-10-17T06:36:42.188Z,14.00
2022-10-17T06:38:04.951Z,14.00
2022-10-17T06:39:33.642Z,14.00
2022-10-17T06:41:02.208Z,14.00
2022-10-17T06:42:24.334Z,14.00
2022-10-17T06:43:47.330Z,14.10
2022-10-17T06:45:10.116Z,14.10
2022-10-17T06:46:32.186Z,14.20
2022-10-17T06:47:54.197Z,14.20
2022-10-17T06:49:16.195Z,14.30
2022-10-17T06:50:38.597Z,14.30
2022-10-17T06:52:00.700Z,14.40
2022-10-17T06:53:24.966Z,14.40
2022-10-17T06:54:47.055Z,14.40
2022-10-17T06:56:10.469Z,14.40
2022-10-17T06:57:32.629Z,14.40
2022-10-17T06:58:55.000Z,14.40
2022-10-17T07:00:17.072Z,14.40
2022-10-17T07:01:40.743Z,14.40
2022-10-17T07:03:05.235Z,14.40
2022-10-17T07:04:27.388Z,14.40
2022-10-17T07:05:55.972Z,14.40
2022-10-17T07:07:17.968Z,14.40
2022-10-17T07:08:44.665Z,14.40
2022-10-17T07:10:10.081Z,14.40
2022-10-17T07:11:32.465Z,14.40
2022-10-17T07:12:54.504Z,14.40
2022-10-17T07:14:16.547Z,14.50
2022-10-17T07:15:38.992Z,14.60
2022-10-17T07:17:02.038Z,14.60
2022-10-17T07:18:24.067Z,14.70
2022-10-17T07:19:46.128Z,14.80
2022-10-17T07:21:08.888Z,14.80
2022-10-17T07:22:30.894Z,14.90
2022-10-17T07:23:52.973Z,15.00
2022-10-17T07:25:15.020Z,15.00
2022-10-17T07:26:37.052Z,15.10
2022-10-17T07:27:59.186Z,15.10
2022-10-17T07:29:21.614Z,15.20
2022-10-17T07:30:44.458Z,15.20
2022-10-17T07:32:08.525Z,15.30
2022-10-17T07:33:30.668Z,15.30
2022-10-17T07:34:52.743Z,15.40
2022-10-17T07:36:15.510Z,15.40
2022-10-17T07:37:38.070Z,15.50
2022-10-17T07:39:00.113Z,15.60
2022-10-17T07:40:22.283Z,15.60
2022-10-17T07:41:44.435Z,15.70
2022-10-17T07:43:06.477Z,15.70
2022-10-17T07:44:28.766Z,15.80
2022-10-17T07:45:51.744Z,16.00
2022-10-17T07:47:13.879Z,16.00
2022-10-17T07:48:35.939Z,16.10
2022-10-17T07:49:58.032Z,16.00
2022-10-17T07:51:20.165Z,16.10
2022-10-17T07:52:43.260Z,16.10
2022-10-17T07:54:06.387Z,16.10
2022-10-17T07:55:28.353Z,16.10
2022-10-17T07:56:50.648Z,16.10
2022-10-17T07:58:13.936Z,16.20
2022-10-17T07:59:37.706Z,16.20
2022-10-17T08:01:06.588Z,16.40
2022-10-17T08:02:30.736Z,16.50
2022-10-17T08:03:53.263Z,16.70
2022-10-17T08:05:15.328Z,16.90
2022-10-17T08:06:37.393Z,17.00
2022-10-17T08:07:59.500Z,17.20
2022-10-17T08:09:21.913Z,17.30
2022-10-17T08:10:43.948Z,17.30
2022-10-17T08:12:06.037Z,17.40
2022-10-17T08:13:28.021Z,17.40
2022-10-17T08:14:50.254Z,17.50
2022-10-17T08:16:13.475Z,17.50
2022-10-17T08:17:36.791Z,17.50
2022-10-17T08:18:58.861Z,17.50
2022-10-17T08:20:21.133Z,17.60
2022-10-17T08:21:44.854Z,17.60
2022-10-17T08:23:06.892Z,17.60
2022-10-17T08:24:28.967Z,17.70
2022-10-17T08:25:51.049Z,17.70
2022-10-17T08:27:13.765Z,17.70
2022-10-17T08:28:37.413Z,17.70
2022-10-17T08:29:59.813Z,17.70
2022-10-17T08:31:22.256Z,17.70
2022-10-17T08:32:44.410Z,17.80
2022-10-17T08:34:06.412Z,17.80
2022-10-17T08:35:28.799Z,17.80
2022-10-17T08:36:50.859Z,17.80
2022-10-17T08:38:13.522Z,17.80
2022-10-17T08:39:35.862Z,17.90
2022-10-17T08:41:01.727Z,18.00
2022-10-17T08:42:45.341Z,18.00
2022-10-17T08:44:19.479Z,18.10
2022-10-17T08:45:41.423Z,18.10
2022-10-17T08:47:09.921Z,18.20
2022-10-17T08:48:37.850Z,18.20
2022-10-17T08:50:03.983Z,18.30
2022-10-17T08:51:33.169Z,18.40
2022-10-17T08:53:15.899Z,18.40
2022-10-17T08:54:45.923Z,18.50
2022-10-17T08:56:19.726Z,18.60
2022-10-17T08:57:48.501Z,18.70
2022-10-17T08:59:17.709Z,18.80
2022-10-17T09:00:43.438Z,18.80
2022-10-17T09:02:41.446Z,18.90
2022-10-17T09:06:20.556Z,19.10
2022-10-17T09:07:48.605Z,19.20
2022-10-17T09:09:36.374Z,19.20
2022-10-17T09:11:29.881Z,19.30
2022-10-17T09:13:09.897Z,19.40
2022-10-17T09:15:14.353Z,19.50
2022-10-17T09:16:47.595Z,19.50
2022-10-17T09:18:13.261Z,19.60
2022-10-17T09:19:39.887Z,19.60
2022-10-17T09:21:14.497Z,19.60
2022-10-17T09:22:49.630Z,19.60
2022-10-17T09:24:20.638Z,19.60
2022-10-17T09:25:49.005Z,19.70
2022-10-17T09:27:28.019Z,19.80
2022-10-17T09:28:56.320Z,19.90
2022-10-17T09:31:00.418Z,20.00
2022-10-17T09:32:25.228Z,20.00
2022-10-17T09:33:54.198Z,20.00
2022-10-17T09:35:17.431Z,20.00
2022-10-17T09:36:40.619Z,20.10
2022-10-17T09:38:02.618Z,20.20
2022-10-17T09:39:26.644Z,20.20
2022-10-17T09:40:57.078Z,20.30
2022-10-17T09:42:21.944Z,20.40
2022-10-17T09:43:45.710Z,20.30
2022-10-17T09:45:10.699Z,20.30
2022-10-17T09:46:38.004Z,20.40
2022-10-17T09:48:01.690Z,20.40
2022-10-17T09:49:39.960Z,20.50
2022-10-17T09:51:14.812Z,20.60
2022-10-17T09:52:47.713Z,20.60
2022-10-17T09:54:22.358Z,20.60
2022-10-17T09:55:48.762Z,20.60
2022-10-17T09:57:12.729Z,20.60
2022-10-17T09:58:47.796Z,20.60
2022-10-17T10:00:26.016Z,20.70
2022-10-17T10:01:53.286Z,20.70
2022-10-17T10:03:18.204Z,20.70
2022-10-17T10:05:10.065Z,20.80
2022-10-17T10:06:32.149Z,20.90
2022-10-17T10:08:12.056Z,21.00
2022-10-17T10:09:39.374Z,21.10
2022-10-17T10:11:05.772Z,21.20
2022-10-17T10:12:31.267Z,21.30
2022-10-17T10:13:53.550Z,21.30
2022-10-17T10:15:45.925Z,21.30
2022-10-17T10:17:37.319Z,21.40
2022-10-17T10:18:59.535Z,21.40
2022-10-17T10:20:37.001Z,21.50
2022-10-17T10:22:03.468Z,21.50
2022-10-17T10:23:25.613Z,21.50
2022-10-17T10:25:17.071Z,21.50
2022-10-17T10:26:42.537Z,21.50
2022-10-17T10:28:11.843Z,21.50
2022-10-17T10:29:37.058Z,21.50
2022-10-17T10:31:02.468Z,21.50
2022-10-17T10:32:31.173Z,21.40
2022-10-17T10:33:56.798Z,21.40
2022-10-17T10:35:22.593Z,21.40
2022-10-17T10:36:53.373Z,21.40
2022-10-17T10:38:17.653Z,21.40
2022-10-17T10:39:47.748Z,21.50
2022-10-17T10:41:11.832Z,21.50
2022-10-17T10:42:41.254Z,21.60
2022-10-17T10:44:04.830Z,21.60
2022-10-17T10:45:47.566Z,21.60
2022-10-17T10:47:36.776Z,21.60
2022-10-17T10:49:03.188Z,21.60
2022-10-17T10:50:47.428Z,21.60
2022-10-17T10:52:18.298Z,21.60
2022-10-17T10:53:56.196Z,21.70
2022-10-17T10:55:32.104Z,21.90
2022-10-17T10:56:56.700Z,22.00
2022-10-17T10:58:42.042Z,22.30
2022-10-17T11:00:09.950Z,22.50
2022-10-17T11:01:41.833Z,22.70
2022-10-17T11:03:31.248Z,22.80
2022-10-17T11:04:59.252Z,22.90
2022-10-17T11:06:27.592Z,23.00
2022-10-17T11:08:27.433Z,23.00
2022-10-17T11:10:10.938Z,23.00
2022-10-17T11:11:40.511Z,23.00
2022-10-17T11:13:22.531Z,23.00
2022-10-17T11:14:51.713Z,23.10
2022-10-17T11:16:32.013Z,23.20
2022-10-17T11:18:11.988Z,23.20
2022-10-17T11:19:46.732Z,23.30
2022-10-17T11:21:20.657Z,23.30
2022-10-17T11:22:47.320Z,23.40
2022-10-17T11:24:42.593Z,23.50
2022-10-17T11:26:11.085Z,23.60
2022-10-17T11:27:34.593Z,23.70
2022-10-17T11:28:58.586Z,23.80
2022-10-17T11:31:50.593Z,23.90
2022-10-17T11:33:19.816Z,24.00
2022-10-17T11:34:49.686Z,24.00
2022-10-17T11:36:14.508Z,23.80
2022-10-17T11:37:47.057Z,23.70
2022-10-17T11:39:23.715Z,23.50
2022-10-17T11:40:50.379Z,23.40
2022-10-17T11:42:24.779Z,23.40
2022-10-17T11:43:58.559Z,23.50
2022-10-17T11:45:23.487Z,23.50
2022-10-17T11:46:50.046Z,23.60
2022-10-17T11:48:26.511Z,23.60
2022-10-17T11:49:57.765Z,23.60
2022-10-17T11:53:14.512Z,23.60
2022-10-17T11:54:48.918Z,23.70
2022-10-17T11:56:12.688Z,23.60
2022-10-17T11:58:09.221Z,23.60
2022-10-17T11:59:56.431Z,23.60
2022-10-17T12:01:24.567Z,23.70
2022-10-17T12:02:57.858Z,23.80
2022-10-17T12:04:25.715Z,23.80
2022-10-17T12:05:55.769Z,23.90
2022-10-17T12:07:22.266Z,24.00
2022-10-17T12:09:10.416Z,24.00
2022-10-17T12:10:35.345Z,24.00
2022-10-17T12:11:59.874Z,23.90
2022-10-17T12:13:33.861Z,23.90
2022-10-17T12:15:25.310Z,23.80
2022-10-17T12:16:47.433Z,23.80
2022-10-17T12:18:17.131Z,23.90
2022-10-17T12:19:39.215Z,23.80
2022-10-17T12:21:01.500Z,23.80
2022-10-17T12:22:26.003Z,23.70
2022-10-17T12:23:55.701Z,23.70
2022-10-17T12:25:32.084Z,23.70
2022-10-17T12:26:57.018Z,23.60
2022-10-17T12:28:24.840Z,23.60
2022-10-17T12:29:48.373Z,23.60
2022-10-17T12:31:16.825Z,23.70
2022-10-17T12:33:05.601Z,23.70
2022-10-17T12:34:28.485Z,23.70
2022-10-17T12:35:51.766Z,23.80
2022-10-17T12:37:15.119Z,23.80
2022-10-17T12:38:37.170Z,23.80
2022-10-17T12:39:59.223Z,23.90
2022-10-17T12:41:39.221Z,23.90
2022-10-17T12:43:02.961Z,24.00
2022-10-17T12:44:28.752Z,24.10
2022-10-17T12:45:55.269Z,24.20
2022-10-17T12:47:37.797Z,24.30
2022-10-17T12:49:03.225Z,24.40
2022-10-17T12:51:34.663Z,24.40
2022-10-17T12:53:04.730Z,24.30
2022-10-17T12:54:26.793Z,24.10
2022-10-17T12:55:51.830Z,24.00
2022-10-17T12:57:51.480Z,23.80
2022-10-17T12:59:33.920Z,23.70
2022-10-17T13:01:23.905Z,23.50
2022-10-17T13:02:41.605Z,23.40
2022-10-17T13:04:05.971Z,23.30
2022-10-17T13:05:38.426Z,23.20
2022-10-17T13:07:01.602Z,23.10
2022-10-17T13:08:46.819Z,23.00
2022-10-17T13:11:50.413Z,22.70
2022-10-17T13:13:33.759Z,22.70
2022-10-17T13:14:56.285Z,22.60
2022-10-17T13:16:36.289Z,22.60
2022-10-17T13:18:00.418Z,22.50
2022-10-17T13:19:29.829Z,22.50
2022-10-17T13:21:15.953Z,22.50
2022-10-17T13:22:45.336Z,22.50
2022-10-17T13:24:42.600Z,22.50
2022-10-17T13:26:07.704Z,22.50
2022-10-17T13:27:33.024Z,22.60
2022-10-17T13:29:15.258Z,22.80
2022-10-17T13:30:37.618Z,23.00
2022-10-17T13:32:02.415Z,23.20
2022-10-17T13:33:39.077Z,23.30
2022-10-17T13:35:17.170Z,23.50
2022-10-17T13:36:39.301Z,23.50
2022-10-17T13:38:04.041Z,23.60
2022-10-17T13:39:54.514Z,23.50
2022-10-17T13:41:35.397Z,23.60
2022-10-17T13:43:02.218Z,23.60
2022-10-17T13:44:27.465Z,23.60
2022-10-17T13:46:02.219Z,23.50
2022-10-17T13:47:30.579Z,23.40
2022-10-17T13:48:53.307Z,23.20
2022-10-17T13:50:43.673Z,23.10
2022-10-17T13:52:17.597Z,23.00
2022-10-17T13:53:43.824Z,22.90
2022-10-17T13:55:17.439Z,22.80
2022-10-17T13:56:40.839Z,22.70
2022-10-17T13:58:39.289Z,22.70
2022-10-17T14:00:09.952Z,22.70
2022-10-17T14:01:34.152Z,22.70
2022-10-17T14:02:56.429Z,22.60
2022-10-17T14:04:20.410Z,22.70
2022-10-17T14:06:09.811Z,22.70
2022-10-17T14:08:09.295Z,22.60
2022-10-17T14:09:29.023Z,22.60
2022-10-17T14:10:51.242Z,22.60
2022-10-17T14:12:13.953Z,22.50
2022-10-17T14:13:36.182Z,22.40
2022-10-17T14:15:10.223Z,22.40
2022-10-17T14:16:43.164Z,22.40
2022-10-17T14:18:08.960Z,22.40
2022-10-17T14:19:37.968Z,22.40
2022-10-17T14:21:34.300Z,22.30
2022-10-17T14:22:50.475Z,22.30
2022-10-17T14:24:22.620Z,22.30
2022-10-17T14:25:44.858Z,22.30
2022-10-17T14:27:25.273Z,22.30
2022-10-17T14:29:04.837Z,22.30
2022-10-17T14:30:51.821Z,22.30
2022-10-17T14:32:15.192Z,22.30
2022-10-17T14:33:39.958Z,22.30
2022-10-17T14:35:30.187Z,22.30
2022-10-17T14:36:51.282Z,22.30
2022-10-17T14:38:15.718Z,22.20
2022-10-17T14:39:38.536Z,22.20
2022-10-17T14:42:59.506Z,22.10
2022-10-17T14:44:30.777Z,22.10
2022-10-17T14:45:52.916Z,22.10
2022-10-17T14:47:42.234Z,22.10
2022-10-17T14:49:14.335Z,22.10
2022-10-17T14:50:36.576Z,22.00
2022-10-17T14:52:15.169Z,21.90
2022-10-17T14:53:39.770Z,21.90
2022-10-17T14:55:23.224Z,21.80
2022-10-17T14:56:52.215Z,21.70
2022-10-17T14:58:27.697Z,21.60
2022-10-17T14:59:54.607Z,21.60
2022-10-17T15:01:17.746Z,21.50
2022-10-17T15:02:39.845Z,21.50
2022-10-17T15:04:02.059Z,21.40
2022-10-17T15:05:25.010Z,21.40
2022-10-17T15:06:54.558Z,21.40
2022-10-17T15:08:20.042Z,21.40
2022-10-17T15:09:43.436Z,21.40
2022-10-17T15:11:05.709Z,21.40
2022-10-17T15:12:28.259Z,21.40
2022-10-17T15:13:51.204Z,21.40
2022-10-17T15:15:13.382Z,21.30
2022-10-17T15:16:35.629Z,21.30
2022-10-17T15:17:57.982Z,21.20
2022-10-17T15:19:20.129Z,21.20
2022-10-17T15:20:42.395Z,21.20
2022-10-17T15:22:04.430Z,21.10
2022-10-17T15:23:26.480Z,21.10
2022-10-17T15:24:48.610Z,21.00
2022-10-17T15:26:21.929Z,21.00
2022-10-17T15:27:44.012Z,21.00
2022-10-17T15:29:06.161Z,21.00
2022-10-17T15:30:32.036Z,21.00
2022-10-17T15:31:54.218Z,20.90
2022-10-17T15:33:16.302Z,20.90
2022-10-17T15:34:38.748Z,20.90
2022-10-17T15:36:00.806Z,20.90
2022-10-17T15:37:25.260Z,20.90
2022-10-17T15:38:48.185Z,20.80
2022-10-17T15:40:17.890Z,20.80
2022-10-17T15:41:39.890Z,20.80
2022-10-17T15:43:02.090Z,20.80
2022-10-17T15:44:24.225Z,20.70
2022-10-17T15:45:46.420Z,20.70
2022-10-17T15:47:25.644Z,20.70
2022-10-17T15:48:48.030Z,20.70
2022-10-17T15:50:17.614Z,20.70
2022-10-17T15:51:40.510Z,20.70
2022-10-17T15:53:02.617Z,20.70
2022-10-17T15:54:24.667Z,20.60
2022-10-17T15:55:50.049Z,20.60
2022-10-17T15:57:19.142Z,20.60
2022-10-17T15:58:41.314Z,20.60
2022-10-17T16:00:06.150Z,20.60
2022-10-17T16:01:30.834Z,20.50
2022-10-17T16:02:52.866Z,20.50
2022-10-17T16:04:15.916Z,20.50
2022-10-17T16:05:38.049Z,20.50
2022-10-17T16:07:00.054Z,20.50
2022-10-17T16:08:22.315Z,20.40
2022-10-17T16:09:44.728Z,20.40
2022-10-17T16:11:06.904Z,20.40
2022-10-17T16:12:30.041Z,20.40
2022-10-17T16:13:54.806Z,20.40
2022-10-17T16:15:28.017Z,20.30
2022-10-17T16:16:50.145Z,20.30
2022-10-17T16:18:12.183Z,20.30
2022-10-17T16:19:34.178Z,20.20
2022-10-17T16:20:56.260Z,20.20
2022-10-17T16:22:28.229Z,20.20
2022-10-17T16:23:50.500Z,20.20
2022-10-17T16:25:26.953Z,20.10
2022-10-17T16:26:49.218Z,20.10
2022-10-17T16:28:12.084Z,20.10
2022-10-17T16:29:34.145Z,20.10
2022-10-17T16:30:56.266Z,20.10
2022-10-17T16:32:18.333Z,20.10
2022-10-17T16:33:40.344Z,20.10
2022-10-17T16:35:02.449Z,20.10
2022-10-17T16:36:24.843Z,20.10
2022-10-17T16:37:47.595Z,20.10
2022-10-17T16:39:09.684Z,20.00
2022-10-17T16:40:31.873Z,20.00
2022-10-17T16:41:56.277Z,20.00
2022-10-17T16:43:20.581Z,20.00
2022-10-17T16:44:42.690Z,20.00
2022-10-17T16:46:04.868Z,20.00
2022-10-17T16:47:26.963Z,19.90
2022-10-17T16:48:49.257Z,19.90
2022-10-17T16:50:11.561Z,19.90
2022-10-17T16:51:35.815Z,19.90
2022-10-17T16:52:57.872Z,19.80
2022-10-17T16:54:19.931Z,19.80
2022-10-17T16:55:41.986Z,19.80
2022-10-17T16:57:04.658Z,19.80
2022-10-17T16:58:30.661Z,19.80
2022-10-17T16:59:52.712Z,19.80
2022-10-17T17:01:17.960Z,19.70
2022-10-17T17:02:40.215Z,19.70
2022-10-17T17:04:04.522Z,19.70
2022-10-17T17:05:26.739Z,19.70
2022-10-17T17:06:49.327Z,19.60
2022-10-17T17:08:12.658Z,19.70
2022-10-17T17:09:34.871Z,19.70
2022-10-17T17:10:57.567Z,19.60
2022-10-17T17:12:19.637Z,19.60
2022-10-17T17:13:41.963Z,19.60
2022-10-17T17:15:04.549Z,19.60
2022-10-17T17:16:28.327Z,19.60
2022-10-17T17:17:53.520Z,19.60
2022-10-17T17:19:17.620Z,19.60
2022-10-17T17:20:40.713Z,19.60
2022-10-17T17:22:03.139Z,19.60
2022-10-17T17:23:25.301Z,19.60
2022-10-17T17:24:47.299Z,19.60
2022-10-17T17:26:14.981Z,19.50
2022-10-17T17:27:37.027Z,19.50
2022-10-17T17:29:00.330Z,19.50
2022-10-17T17:30:22.613Z,19.50
2022-10-17T17:31:44.749Z,19.50
2022-10-17T17:33:06.882Z,19.60
2022-10-17T17:34:29.127Z,19.60
2022-10-17T17:36:00.044Z,19.60
2022-10-17T17:37:22.059Z,19.60
2022-10-17T17:38:44.765Z,19.60
2022-10-17T17:40:07.510Z,19.60
2022-10-17T17:41:29.690Z,19.60
2022-10-17T17:42:51.919Z,19.60
2022-10-17T17:44:16.731Z,19.60
2022-10-17T17:45:39.399Z,19.50
2022-10-17T17:47:01.497Z,19.50
2022-10-17T17:48:23.628Z,19.50
2022-10-17T17:49:45.630Z,19.50
2022-10-17T17:51:10.127Z,19.50
2022-10-17T17:52:32.360Z,19.50
2022-10-17T17:53:54.898Z,19.50
2022-10-17T17:55:17.036Z,19.50
2022-10-17T17:56:39.717Z,19.50
2022-10-17T17:58:02.090Z,19.50
2022-10-17T17:59:24.113Z,19.50
2022-10-17T18:00:46.232Z,19.50
2022-10-17T18:02:09.581Z,19.50
2022-10-17T18:03:31.677Z,19.40
2022-10-17T18:04:53.799Z,19.40
2022-10-17T18:06:16.650Z,19.40
2022-10-17T18:07:38.842Z,19.40
2022-10-17T18:09:01.645Z,19.30
2022-10-17T18:10:23.878Z,19.30
2022-10-17T18:11:46.201Z,19.30
2022-10-17T18:13:08.278Z,19.30
2022-10-17T18:14:30.391Z,19.20
2022-10-17T18:15:57.974Z,19.20
2022-10-17T18:17:20.006Z,19.20
2022-10-17T18:18:43.827Z,19.20
2022-10-17T18:20:07.243Z,19.10
2022-10-17T18:21:29.351Z,19.10
2022-10-17T18:22:51.450Z,19.10
2022-10-17T18:24:13.614Z,19.10
2022-10-17T18:25:35.915Z,19.10
2022-10-17T18:26:59.918Z,19.10
2022-10-17T18:28:22.133Z,19.10
2022-10-17T18:29:48.138Z,19.10
2022-10-17T18:31:15.296Z,19.10
2022-10-17T18:32:37.435Z,19.10
2022-10-17T18:34:02.799Z,19.10
2022-10-17T18:35:24.840Z,19.10
2022-10-17T18:36:47.053Z,19.10
2022-10-17T18:38:09.077Z,19.10
2022-10-17T18:39:31.070Z,19.10
2022-10-17T18:41:06.340Z,19.10
2022-10-17T18:42:28.584Z,19.10
2022-10-17T18:43:52.136Z,19.10
2022-10-17T18:45:14.258Z,19.10
2022-10-17T18:46:40.711Z,19.10
2022-10-17T18:48:02.838Z,19.10
2022-10-17T18:49:25.610Z,19.10
2022-10-17T18:50:47.711Z,19.10
2022-10-17T18:52:09.784Z,19.10